createdAt,value
2019-01-05T00:00:45.052Z,102447.86
2019-01-05T00:04:13.187Z,102448.99
2019-01-05T00:07:14.684Z,102449.68
2019-01-05T00:10:23.633Z,102456.23
2019-01-05T00:13:32.219Z,102456.33
2019-01-05T00:17:01.607Z,102428.70
2019-01-05T00:20:04.252Z,102415.94
2019-01-05T00:23:32.260Z,102399.81
2019-01-05T00:26:36.315Z,102409.37
2019-01-05T00:29:40.780Z,102423.64
2019-01-05T00:32:53.957Z,102422.50
2019-01-05T00:35:58.882Z,102421.14
2019-01-05T00:39:29.035Z,102419.94
2019-01-05T00:42:29.964Z,102396.59
2019-01-05T00:45:59.636Z,102396.52
2019-01-05T00:49:01.953Z,102398.25
2019-01-05T00:52:31.342Z,102422.92
2019-01-05T00:55:34.712Z,102422.92
2019-01-05T00:58:37.047Z,102388.75
2019-01-05T01:01:45.889Z,102412.36
2019-01-05T01:08:09.711Z,102378.91
2019-01-05T01:11:11.814Z,102400.88
2019-01-05T01:14:22.683Z,102373.11
2019-01-05T01:17:16.651Z,102381.11
2019-01-05T01:20:08.152Z,102394.08
2019-01-05T01:23:10.602Z,102396.71
2019-01-05T01:29:30.941Z,102368.27
2019-01-05T01:32:42.146Z,102390.43
2019-01-05T01:35:39.194Z,102382.72
2019-01-05T01:38:51.213Z,102376.09
2019-01-05T01:41:54.730Z,102348.82
2019-01-05T01:45:03.808Z,102343.78
2019-01-05T01:48:12.663Z,102335.27
2019-01-05T01:51:21.917Z,102334.90
2019-01-05T01:54:23.360Z,102345.05
2019-01-05T01:57:52.523Z,102342.02
2019-01-05T02:00:54.464Z,102345.90
2019-01-05T02:04:23.664Z,102343.13
2019-01-05T02:07:27.752Z,102326.73
2019-01-05T02:10:36.399Z,102331.75
2019-01-05T02:13:43.735Z,102326.54
2019-01-05T02:20:18.585Z,102310.45
2019-01-05T02:23:20.652Z,102283.70
2019-01-05T02:27:07.203Z,102283.81
2019-01-05T02:30:09.139Z,102303.25
2019-01-05T02:33:55.897Z,102274.70
2019-01-05T02:37:20.353Z,102271.65
2019-01-05T02:40:41.260Z,102293.55
2019-01-05T02:44:28.259Z,102293.36
2019-01-05T02:47:53.296Z,102251.84
2019-01-05T02:51:00.591Z,102282.63
2019-01-05T02:54:34.333Z,102241.11
2019-01-05T02:57:41.509Z,102245.09
2019-01-05T03:01:28.711Z,102267.94
2019-01-05T03:04:30.539Z,102271.08
2019-01-05T03:08:17.109Z,102247.34
2019-01-05T03:11:18.671Z,102235.34
2019-01-05T03:14:35.184Z,102257.67
2019-01-05T03:17:36.832Z,102219.80
2019-01-05T03:21:12.032Z,102210.52
2019-01-05T03:24:22.988Z,102230.45
2019-01-05T03:28:12.599Z,102223.76
2019-01-05T03:31:37.589Z,102240.16
2019-01-05T03:34:47.516Z,102234.17
2019-01-05T03:38:32.274Z,102207.13
2019-01-05T03:45:29.273Z,102200.30
2019-01-05T03:48:55.705Z,102238.23
2019-01-05T03:52:42.544Z,102222.73
2019-01-05T03:55:58.096Z,102226.31
2019-01-05T03:59:44.898Z,102197.08
2019-01-05T04:06:41.986Z,102229.19
2019-01-05T04:10:28.942Z,102236.80
2019-01-05T04:13:49.126Z,102245.41
2019-01-05T04:17:35.537Z,102221.53
2019-01-05T04:21:06.920Z,102207.34
2019-01-05T04:24:53.823Z,102234.95
2019-01-05T04:28:40.581Z,102212.53
2019-01-05T04:32:04.895Z,102246.17
2019-01-05T04:35:38.254Z,102211.00
2019-01-05T04:39:24.809Z,102249.56
2019-01-05T04:42:30.608Z,102220.89
2019-01-05T04:46:06.228Z,102238.83
2019-01-05T04:49:40.091Z,102235.69
2019-01-05T04:53:26.876Z,102223.22
2019-01-05T04:57:10.043Z,102224.66
2019-01-05T05:00:30.266Z,102197.07
2019-01-05T05:04:16.756Z,102223.95
2019-01-05T05:07:18.865Z,102205.23
2019-01-05T05:11:00.865Z,102202.55
2019-01-05T05:14:11.278Z,102180.82
2019-01-05T05:17:57.810Z,102188.92
2019-01-05T05:21:06.154Z,102209.62
2019-01-05T05:24:45.491Z,102215.95
2019-01-05T05:28:29.177Z,102194.11
2019-01-05T05:31:53.309Z,102184.88
2019-01-05T05:35:30.697Z,102190.70
2019-01-05T05:38:56.654Z,102186.45
2019-01-05T05:42:45.188Z,102193.60
2019-01-05T05:50:06.186Z,102217.86
2019-01-05T05:53:14.500Z,102203.84
2019-01-05T05:57:01.109Z,102176.72
2019-01-05T06:03:59.822Z,102186.88
2019-01-05T06:07:46.613Z,102195.82
2019-01-05T06:11:13.190Z,102183.87
2019-01-05T06:18:30.217Z,102190.59
2019-01-05T06:21:31.526Z,102203.37
2019-01-05T06:28:33.021Z,102210.84
2019-01-05T06:31:36.775Z,102218.64
2019-01-05T06:35:20.883Z,102225.44
2019-01-05T06:38:43.746Z,102260.52
2019-01-05T06:42:23.765Z,102233.07
2019-01-05T06:45:45.042Z,102243.73
2019-01-05T06:49:31.622Z,102241.23
2019-01-05T06:52:48.496Z,102281.54
2019-01-05T06:56:11.445Z,102286.55
2019-01-05T06:59:57.997Z,102261.14
2019-01-05T07:03:44.620Z,102292.62
2019-01-05T07:11:33.124Z,102288.50
2019-01-05T07:14:56.394Z,102295.48
2019-01-05T07:18:16.291Z,102282.46
2019-01-05T07:21:52.735Z,102261.83
2019-01-05T07:25:10.269Z,102299.09
2019-01-05T07:28:12.139Z,102301.83
2019-01-05T07:31:23.098Z,102280.36
2019-01-05T07:35:09.625Z,102292.55
2019-01-05T07:38:12.433Z,102293.00
2019-01-05T07:41:59.194Z,102298.84
2019-01-05T07:45:00.262Z,102328.26
2019-01-05T07:48:46.845Z,102302.84
2019-01-05T07:52:08.136Z,102306.94
2019-01-05T07:55:54.708Z,102304.92
2019-01-05T07:59:07.193Z,102311.06
2019-01-05T08:02:53.681Z,102312.66
2019-01-05T08:06:06.852Z,102337.20
2019-01-05T08:09:53.372Z,102334.17
2019-01-05T08:16:03.527Z,102340.25
2019-01-05T08:19:46.164Z,102335.80
2019-01-05T08:23:00.033Z,102341.55
2019-01-05T08:26:46.829Z,102313.60
2019-01-05T08:30:07.435Z,102313.31
2019-01-05T08:33:31.313Z,102311.48
2019-01-05T08:37:17.795Z,102310.67
2019-01-05T08:41:04.370Z,102333.17
2019-01-05T08:44:32.264Z,102345.48
2019-01-05T08:51:14.874Z,102338.27
2019-01-05T08:55:01.717Z,102356.77
2019-01-05T08:58:30.731Z,102329.81
2019-01-05T09:02:17.258Z,102334.30
2019-01-05T09:06:03.883Z,102335.80
2019-01-05T09:09:50.662Z,102331.60
2019-01-05T09:12:54.016Z,102334.69
2019-01-05T09:16:41.294Z,102346.00
2019-01-05T09:20:03.169Z,102332.78
2019-01-05T09:23:50.769Z,102365.52
2019-01-05T09:27:20.629Z,102362.48
2019-01-05T09:33:46.229Z,102375.10
2019-01-05T09:40:32.911Z,102361.73
2019-01-05T09:44:19.423Z,102361.87
2019-01-05T09:47:20.796Z,102375.78
2019-01-05T09:51:04.264Z,102402.50
2019-01-05T09:54:27.403Z,102369.50
2019-01-05T09:58:13.914Z,102379.16
2019-01-05T10:01:15.430Z,102411.64
2019-01-05T10:04:55.248Z,102406.24
2019-01-05T10:08:10.084Z,102407.02
2019-01-05T10:11:56.654Z,102401.34
2019-01-05T10:15:21.453Z,102401.14
2019-01-05T10:18:48.052Z,102377.89
2019-01-05T10:22:34.909Z,102401.14
2019-01-05T10:29:32.234Z,102412.87
2019-01-05T10:39:46.942Z,102410.96
2019-01-05T10:43:30.940Z,102388.29
2019-01-05T10:47:18.291Z,102415.02
2019-01-05T10:50:33.269Z,102381.69
2019-01-05T10:54:22.958Z,102376.42
2019-01-05T10:57:39.314Z,102381.23
2019-01-05T11:01:26.033Z,102379.97
2019-01-05T11:04:48.835Z,102370.02
2019-01-05T11:08:35.689Z,102399.84
2019-01-05T11:22:24.508Z,102362.42
2019-01-05T11:25:44.461Z,102403.03
2019-01-05T11:29:33.785Z,102387.36
2019-01-05T11:32:36.951Z,102418.02
2019-01-05T11:36:23.719Z,102384.88
2019-01-05T11:40:11.166Z,102418.19
2019-01-05T11:43:57.945Z,102421.70
2019-01-05T11:47:14.322Z,102413.56
2019-01-05T11:50:15.794Z,102385.11
2019-01-05T11:53:43.864Z,102412.66
2019-01-05T11:57:03.874Z,102407.48
2019-01-05T12:03:23.573Z,102406.44
2019-01-05T12:06:48.512Z,102407.97
2019-01-05T12:14:12.102Z,102379.09
2019-01-05T12:17:36.599Z,102392.75
2019-01-05T12:20:58.210Z,102377.24
2019-01-05T12:28:39.914Z,102400.03
2019-01-05T12:31:59.635Z,102377.40
2019-01-05T12:35:26.521Z,102380.42
2019-01-05T12:39:13.089Z,102403.66
2019-01-05T12:42:37.622Z,102405.64
2019-01-05T12:46:25.106Z,102405.70
2019-01-05T12:49:45.443Z,102382.90
2019-01-05T12:52:49.436Z,102392.10
2019-01-05T12:56:35.990Z,102427.48
2019-01-05T13:00:00.620Z,102408.45
2019-01-05T13:03:20.644Z,102405.83
2019-01-05T13:07:07.164Z,102427.13
2019-01-05T13:10:11.259Z,102431.52
2019-01-05T13:13:58.037Z,102427.06
2019-01-05T13:17:18.237Z,102437.27
2019-01-05T13:20:20.092Z,102417.95
2019-01-05T13:27:06.473Z,102451.84
2019-01-05T13:30:09.259Z,102464.84
2019-01-05T13:33:19.405Z,102467.98
2019-01-05T13:36:50.369Z,102435.78
2019-01-05T13:40:37.919Z,102445.70
2019-01-05T13:44:24.473Z,102465.06
2019-01-05T13:48:11.006Z,102436.92
2019-01-05T13:54:28.789Z,102453.13
2019-01-05T13:57:37.350Z,102467.53
2019-01-05T14:00:38.411Z,102480.06
2019-01-05T14:03:32.530Z,102470.92
2019-01-05T14:06:41.607Z,102437.13
2019-01-05T14:09:44.161Z,102462.16
2019-01-05T14:15:56.379Z,102433.43
2019-01-05T14:18:57.817Z,102449.95
2019-01-05T14:21:59.486Z,102474.41
2019-01-05T14:25:02.506Z,102457.84
2019-01-05T14:28:03.859Z,102452.33
2019-01-05T14:31:13.617Z,102482.91
2019-01-05T14:34:15.354Z,102470.30
2019-01-05T14:37:19.616Z,102453.30
2019-01-05T14:40:28.926Z,102453.11
2019-01-05T14:43:31.776Z,102472.24
2019-01-05T14:46:40.046Z,102439.96
2019-01-05T14:49:41.517Z,102445.05
2019-01-05T14:52:50.060Z,102479.05
2019-01-05T14:55:55.778Z,102488.31
2019-01-05T14:59:04.335Z,102500.63
2019-01-05T15:02:05.779Z,102496.93
2019-01-05T15:05:15.044Z,102502.45
2019-01-05T15:08:04.792Z,102506.84
2019-01-05T15:11:14.906Z,102488.63
2019-01-05T15:14:24.097Z,102514.56
2019-01-05T15:17:25.087Z,102501.63
2019-01-05T15:20:33.855Z,102496.34
2019-01-05T15:23:42.182Z,102487.94
2019-01-05T15:26:46.558Z,102492.64
2019-01-05T15:29:49.158Z,102516.23
2019-01-05T15:32:57.414Z,102489.00
2019-01-05T15:36:01.896Z,102517.73
2019-01-05T15:39:10.180Z,102524.92
2019-01-05T15:42:07.036Z,102510.60
2019-01-05T15:45:15.293Z,102514.78
2019-01-05T15:48:17.382Z,102519.05
2019-01-05T15:51:25.648Z,102519.98
2019-01-05T15:54:24.332Z,102543.25
2019-01-05T16:00:33.653Z,102525.19
2019-01-05T16:03:40.951Z,102519.70
2019-01-05T16:06:49.115Z,102552.34
2019-01-05T16:09:57.405Z,102561.89
2019-01-05T16:13:01.913Z,102573.06
2019-01-05T16:16:03.816Z,102540.49
2019-01-05T16:19:12.393Z,102576.59
2019-01-05T16:22:14.890Z,102576.02
2019-01-05T16:25:04.063Z,102574.69
2019-01-05T16:31:22.060Z,102552.43
2019-01-05T16:34:22.891Z,102546.13
2019-01-05T16:37:32.208Z,102578.02
2019-01-05T16:40:33.532Z,102559.74
2019-01-05T16:43:42.028Z,102590.94
2019-01-05T16:46:43.561Z,102591.05
2019-01-05T16:49:47.572Z,102563.72
2019-01-05T16:53:10.507Z,102589.06
2019-01-05T16:55:46.928Z,102588.53
2019-01-05T16:58:47.578Z,102585.52
2019-01-05T17:01:47.860Z,102587.84
2019-01-05T17:04:56.421Z,102574.14
2019-01-05T17:08:00.049Z,102569.88
2019-01-05T17:11:08.394Z,102599.61
2019-01-05T17:14:09.557Z,102576.45
2019-01-05T17:17:13.326Z,102606.67
2019-01-05T17:20:20.235Z,102585.45
2019-01-05T17:26:24.660Z,102602.03
2019-01-05T17:32:53.315Z,102574.75
2019-01-05T17:36:01.706Z,102599.90
2019-01-05T17:39:03.943Z,102595.68
2019-01-05T17:42:07.582Z,102568.53
2019-01-05T17:45:15.797Z,102598.12
2019-01-05T17:48:22.741Z,102559.97
2019-01-05T17:51:31.210Z,102593.00
2019-01-05T17:54:38.597Z,102589.95
2019-01-05T17:57:49.386Z,102563.28
2019-01-05T18:00:50.863Z,102559.31
2019-01-05T18:04:01.713Z,102565.31
2019-01-05T18:07:03.864Z,102603.70
2019-01-05T18:10:12.494Z,102613.13
2019-01-05T18:13:11.128Z,102621.23
2019-01-05T18:16:19.435Z,102607.66
2019-01-05T18:19:24.039Z,102597.45
2019-01-05T18:22:32.636Z,102598.59
2019-01-05T18:25:44.408Z,102628.27
2019-01-05T18:28:52.747Z,102627.77
2019-01-05T18:31:53.969Z,102626.60
2019-01-05T18:34:55.272Z,102625.38
2019-01-05T18:37:45.608Z,102617.79
2019-01-05T18:40:46.819Z,102617.95
2019-01-05T18:43:55.523Z,102619.41
2019-01-05T18:46:56.875Z,102596.67
2019-01-05T18:53:04.942Z,102636.98
2019-01-05T18:56:10.184Z,102638.70
2019-01-05T18:59:18.640Z,102629.08
2019-01-05T19:02:09.294Z,102631.08
2019-01-05T19:04:58.672Z,102624.00
2019-01-05T19:08:02.413Z,102601.94
2019-01-05T19:11:10.901Z,102627.97
2019-01-05T19:14:12.154Z,102624.34
2019-01-05T19:17:09.217Z,102623.90
2019-01-05T19:20:17.516Z,102620.56
2019-01-05T19:23:18.531Z,102623.00
2019-01-05T19:26:23.046Z,102624.88
2019-01-05T19:29:31.560Z,102620.53
2019-01-05T19:32:22.510Z,102646.42
2019-01-05T19:35:24.907Z,102640.52
2019-01-05T19:38:29.396Z,102644.94
2019-01-05T19:41:39.130Z,102645.67
2019-01-05T19:51:08.096Z,102650.59
2019-01-05T19:54:09.257Z,102632.67
2019-01-05T19:57:18.660Z,102634.28
2019-01-05T20:00:20.353Z,102623.96
2019-01-05T20:03:29.617Z,102655.38
2019-01-05T20:06:22.842Z,102631.68
2019-01-05T20:09:31.187Z,102639.21
2019-01-05T20:12:34.471Z,102657.70
2019-01-05T20:15:27.088Z,102661.45
2019-01-05T20:18:35.551Z,102636.01
2019-01-05T20:21:38.114Z,102670.31
2019-01-05T20:24:46.523Z,102669.92
2019-01-05T20:27:51.309Z,102645.34
2019-01-05T20:30:59.808Z,102645.17
2019-01-05T20:34:06.800Z,102671.88
2019-01-05T20:37:15.667Z,102653.75
2019-01-05T20:43:33.542Z,102685.73
2019-01-05T20:46:34.865Z,102664.25
2019-01-05T20:49:43.100Z,102685.02
2019-01-05T20:52:47.621Z,102665.13
2019-01-05T20:59:06.464Z,102668.58
2019-01-05T21:02:05.583Z,102666.02
2019-01-05T21:05:08.863Z,102692.54
2019-01-05T21:08:12.486Z,102674.52
2019-01-05T21:11:20.791Z,102672.93
2019-01-05T21:14:29.023Z,102660.08
2019-01-05T21:17:18.177Z,102680.08
2019-01-05T21:20:26.608Z,102684.84
2019-01-05T21:23:24.914Z,102682.18
2019-01-05T21:26:33.164Z,102685.70
2019-01-05T21:29:44.363Z,102693.78
2019-01-05T21:32:52.795Z,102696.38
2019-01-05T21:35:52.367Z,102695.55
2019-01-05T21:39:00.620Z,102666.47
2019-01-05T21:42:04.283Z,102660.06
2019-01-05T21:45:13.726Z,102697.34
2019-01-05T21:48:15.028Z,102673.93
2019-01-05T21:51:16.330Z,102667.42
2019-01-05T21:54:24.554Z,102674.02
2019-01-05T21:57:26.479Z,102675.15
2019-01-05T22:00:34.816Z,102696.84
2019-01-05T22:06:28.641Z,102699.83
2019-01-05T22:12:52.867Z,102696.59
2019-01-05T22:15:54.216Z,102673.79
2019-01-05T22:18:55.554Z,102668.83
2019-01-05T22:22:03.809Z,102697.02
2019-01-05T22:25:05.712Z,102668.78
2019-01-05T22:27:55.869Z,102692.50
2019-01-05T22:30:57.083Z,102679.05
2019-01-05T22:34:05.538Z,102665.82
2019-01-05T22:36:55.866Z,102695.06
2019-01-05T22:39:45.117Z,102702.48
2019-01-05T22:45:47.798Z,102680.30
2019-01-05T22:48:56.065Z,102673.87
2019-01-05T22:52:04.380Z,102669.01
2019-01-05T22:55:04.769Z,102706.17
2019-01-05T22:58:13.000Z,102710.27
2019-01-05T23:01:14.221Z,102690.09
2019-01-05T23:07:50.457Z,102689.95
2019-01-05T23:10:46.049Z,102716.95
2019-01-05T23:13:47.562Z,102720.05
2019-01-05T23:16:55.815Z,102695.58
2019-01-05T23:23:26.646Z,102701.11
2019-01-05T23:26:27.860Z,102700.67
2019-01-05T23:29:36.800Z,102700.02
2019-01-05T23:32:26.040Z,102726.17
2019-01-05T23:35:28.950Z,102701.27
2019-01-05T23:38:37.166Z,102723.73
2019-01-05T23:41:38.389Z,102724.66
2019-01-05T23:44:43.253Z,102715.30
2019-01-05T23:47:45.334Z,102691.26
2019-01-05T23:50:46.955Z,102687.86
2019-01-05T23:53:55.200Z,102684.19
2019-01-05T23:56:57.331Z,102708.41
